Time;durP1;ratioP1;P1;durP2;ratioP2;P2;SDS_P1;SDS_P2;PMS_P1;PMS_P2;Temp;Humidity;BMP_temperature;BMP_pressure;BME280_temperature;BME280_humidity;BME280_pressure;Samples;Min_cycle;Max_cycle;Signal;HPM_P1;HPM_P2
2021/03/19 00:00:47;;;;;;;4.43;2.35;;;7.20;79.80;;;;;;4993377;28;20417;-76
2021/03/19 00:03:15;;;;;;;3.38;2.17;;;7.20;79.50;;;;;;4967020;28;20401;-76
2021/03/19 00:05:43;;;;;;;3.70;2.47;;;7.10;79.80;;;;;;5011400;28;20824;-76
2021/03/19 00:08:11;;;;;;;4.68;2.60;;;7.10;80.00;;;;;;4975957;28;20142;-76
2021/03/19 00:10:39;;;;;;;4.38;2.90;;;7.10;80.30;;;;;;4997852;28;20057;-76
2021/03/19 00:13:09;;;;;;;4.78;2.80;;;7.10;80.60;;;;;;4988986;28;20035;-76
2021/03/19 00:15:37;;;;;;;5.15;3.17;;;7.10;80.50;;;;;;4982676;28;20047;-76
2021/03/19 00:18:06;;;;;;;5.00;2.70;;;7.10;80.20;;;;;;4994332;28;20163;-76
2021/03/19 00:20:36;;;;;;;4.90;2.75;;;7.00;80.10;;;;;;4978581;28;20043;-76
2021/03/19 00:23:04;;;;;;;7.32;3.40;;;7.10;80.10;;;;;;4983657;28;20104;-76
2021/03/19 00:25:33;;;;;;;5.05;3.00;;;7.10;80.00;;;;;;4981990;28;20133;-76
2021/03/19 00:28:00;;;;;;;5.43;2.88;;;7.10;80.20;;;;;;4979303;28;20042;-76
2021/03/19 00:30:28;;;;;;;4.50;2.58;;;7.30;79.90;;;;;;4982409;28;20124;-77
2021/03/19 00:32:56;;;;;;;5.53;3.55;;;7.10;80.00;;;;;;4976724;28;20034;-76
2021/03/19 00:35:24;;;;;;;4.63;2.50;;;7.10;80.10;;;;;;4981950;28;20034;-76
2021/03/19 00:37:52;;;;;;;5.70;2.63;;;7.20;80.20;;;;;;4983268;28;20038;-76
2021/03/19 00:40:20;;;;;;;3.03;2.20;;;7.30;79.90;;;;;;4980988;28;20535;-76
2021/03/19 00:42:48;;;;;;;3.45;2.03;;;7.20;80.10;;;;;;4976672;28;20532;-76
2021/03/19 00:45:17;;;;;;;2.72;1.90;;;7.20;80.10;;;;;;4968816;28;20050;-76
2021/03/19 00:47:49;;;;;;;4.72;1.90;;;7.10;80.00;;;;;;4977252;28;20046;-76
2021/03/19 00:50:26;;;;;;;3.92;2.08;;;7.20;80.10;;;;;;4981070;28;20715;-76
2021/03/19 00:52:55;;;;;;;3.40;2.22;;;7.20;79.90;;;;;;4983957;28;20440;-76
2021/03/19 00:55:23;;;;;;;5.13;2.40;;;7.20;80.10;;;;;;5012719;28;20137;-77
2021/03/19 00:57:51;;;;;;;3.75;1.90;;;7.00;80.40;;;;;;4979189;28;20042;-76
2021/03/19 01:00:21;;;;;;;3.47;1.98;;;6.90;81.00;;;;;;4979424;28;20038;-76
2021/03/19 01:02:48;;;;;;;3.38;2.25;;;6.90;81.20;;;;;;4964415;28;20453;-76
2021/03/19 01:05:18;;;;;;;3.83;2.38;;;6.80;81.40;;;;;;4978784;28;20062;-76
2021/03/19 01:07:47;;;;;;;4.22;2.38;;;6.70;81.60;;;;;;4977223;28;20152;-76
2021/03/19 01:10:17;;;;;;;2.83;2.03;;;6.60;82.00;;;;;;4994837;28;20034;-76
2021/03/19 01:12:44;;;;;;;3.17;1.70;;;6.50;82.30;;;;;;4979149;28;20046;-76
2021/03/19 01:15:14;;;;;;;3.95;2.25;;;6.40;82.80;;;;;;4982644;28;20042;-76
2021/03/19 01:17:41;;;;;;;4.13;2.08;;;6.40;82.90;;;;;;4980159;28;20532;-76
2021/03/19 01:20:11;;;;;;;5.32;2.10;;;6.40;83.00;;;;;;4981817;28;20046;-76
2021/03/19 01:22:39;;;;;;;3.95;1.85;;;6.40;83.00;;;;;;5012219;28;20075;-76
2021/03/19 01:25:10;;;;;;;3.35;2.35;;;6.30;83.40;;;;;;4982003;28;20449;-76
2021/03/19 01:27:37;;;;;;;4.10;2.13;;;6.30;83.40;;;;;;4977626;28;20050;-76
2021/03/19 01:30:06;;;;;;;3.20;2.00;;;6.20;83.40;;;;;;4981932;28;20088;-76
2021/03/19 01:32:34;;;;;;;2.80;1.83;;;6.10;83.60;;;;;;4993152;28;20054;-76
2021/03/19 01:35:03;;;;;;;3.25;2.30;;;5.80;84.20;;;;;;4990003;28;20379;-76
2021/03/19 01:37:31;;;;;;;3.65;2.30;;;5.70;84.60;;;;;;4963119;28;20108;-76
2021/03/19 01:39:59;;;;;;;3.40;2.10;;;5.60;85.00;;;;;;4971393;28;20049;-76
2021/03/19 01:42:26;;;;;;;4.55;2.13;;;5.60;85.60;;;;;;4991801;28;20165;-76
2021/03/19 01:45:21;;;;;;;3.97;1.92;;;5.70;85.40;;;;;;4979452;28;20056;-76
2021/03/19 01:48:17;;;;;;;3.83;2.05;;;5.70;85.60;;;;;;4968350;28;20058;-76
2021/03/19 01:51:15;;;;;;;4.13;2.30;;;5.60;85.60;;;;;;4978388;28;20129;-76
2021/03/19 01:54:11;;;;;;;4.07;2.00;;;5.50;85.40;;;;;;4978120;28;20038;-76
2021/03/19 01:57:08;;;;;;;2.80;2.03;;;5.50;85.70;;;;;;4980662;28;20077;-76
2021/03/19 02:00:05;;;;;;;3.15;2.13;;;5.40;85.60;;;;;;4976680;28;20042;-76
2021/03/19 02:03:02;;;;;;;5.80;2.03;;;5.50;85.40;;;;;;4979861;28;20046;-76
2021/03/19 02:05:59;;;;;;;2.75;1.95;;;5.40;85.20;;;;;;4976553;28;20595;-76
2021/03/19 02:08:55;;;;;;;5.47;2.10;;;5.50;85.30;;;;;;4978798;28;20061;-76
2021/03/19 02:11:52;;;;;;;4.37;2.43;;;5.40;85.40;;;;;;4978935;28;20039;-76
2021/03/19 02:14:49;;;;;;;4.07;2.10;;;5.40;85.40;;;;;;4975884;28;20046;-76
2021/03/19 02:17:46;;;;;;;3.95;2.15;;;5.40;85.10;;;;;;4978702;28;20038;-76
2021/03/19 02:20:42;;;;;;;3.57;2.30;;;5.40;85.40;;;;;;5006740;28;20490;-77
2021/03/19 02:23:39;;;;;;;4.05;2.67;;;5.50;85.20;;;;;;4983296;28;20862;-76
2021/03/19 02:26:36;;;;;;;4.43;2.30;;;5.60;84.90;;;;;;4980239;28;20050;-76
2021/03/19 02:29:34;;;;;;;3.63;2.20;;;5.60;84.80;;;;;;4974448;28;20050;-76
2021/03/19 02:32:07;;;;;;;3.45;2.13;;;5.60;84.60;;;;;;5007945;28;20512;-76
2021/03/19 02:34:40;;;;;;;3.60;2.25;;;5.50;84.30;;;;;;4978438;28;21094;-76
2021/03/19 02:37:08;;;;;;;3.08;1.90;;;5.70;84.50;;;;;;4983421;28;20034;-76
2021/03/19 02:39:37;;;;;;;3.22;2.28;;;5.70;84.10;;;;;;4975599;28;20085;-77
2021/03/19 02:42:06;;;;;;;5.90;2.30;;;5.50;84.30;;;;;;4994456;28;20113;-76
2021/03/19 02:44:35;;;;;;;4.00;2.10;;;5.50;84.40;;;;;;4993266;28;20070;-76
2021/03/19 02:47:05;;;;;;;2.92;1.95;;;5.60;84.40;;;;;;4997693;28;20552;-77
2021/03/19 02:49:33;;;;;;;3.60;2.05;;;5.30;84.80;;;;;;4979419;28;20051;-76
2021/03/19 02:52:18;;;;;;;3.47;2.17;;;5.10;85.30;;;;;;4969590;28;20047;-76
2021/03/19 02:54:45;;;;;;;3.38;2.03;;;5.20;85.90;;;;;;4976821;28;20587;-76
2021/03/19 02:57:12;;;;;;;3.78;2.20;;;5.10;85.60;;;;;;4977996;28;20051;-76
2021/03/19 02:59:39;;;;;;;3.92;2.03;;;5.20;85.70;;;;;;4986281;28;20496;-76
2021/03/19 03:02:08;;;;;;;4.25;2.15;;;5.00;86.00;;;;;;4980832;28;20046;-76
2021/03/19 03:04:36;;;;;;;3.60;2.10;;;4.90;86.40;;;;;;4997819;28;20039;-76
2021/03/19 03:07:03;;;;;;;3.35;2.00;;;4.80;86.30;;;;;;4980412;28;20030;-76
2021/03/19 03:09:33;;;;;;;4.63;2.22;;;4.80;86.60;;;;;;4980677;28;20054;-76
2021/03/19 03:12:01;;;;;;;4.82;2.10;;;4.90;86.60;;;;;;5013073;28;20648;-76
2021/03/19 03:14:30;;;;;;;4.28;2.60;;;4.80;86.60;;;;;;4980172;28;20058;-76
2021/03/19 03:16:59;;;;;;;5.32;2.90;;;4.80;86.70;;;;;;5015728;28;20042;-76
2021/03/19 03:19:28;;;;;;;6.00;2.83;;;4.80;86.70;;;;;;4995979;28;20066;-76
2021/03/19 03:21:56;;;;;;;6.43;2.80;;;4.70;87.10;;;;;;4983018;28;20066;-76
2021/03/19 03:24:25;;;;;;;4.03;2.83;;;4.70;87.30;;;;;;4984727;28;20507;-77
2021/03/19 03:26:53;;;;;;;3.42;2.42;;;4.70;87.30;;;;;;4981497;28;20046;-76
2021/03/19 03:29:22;;;;;;;6.10;2.72;;;4.70;87.30;;;;;;4985397;28;20047;-76
2021/03/19 03:31:50;;;;;;;5.47;2.90;;;4.70;87.30;;;;;;4982439;28;20058;-76
2021/03/19 03:34:18;;;;;;;4.53;2.40;;;4.60;87.10;;;;;;4983979;28;20127;-76
2021/03/19 03:36:46;;;;;;;3.55;2.35;;;4.60;87.30;;;;;;4965057;28;20039;-76
2021/03/19 03:39:17;;;;;;;3.60;2.20;;;4.70;87.40;;;;;;4982628;28;20042;-76
2021/03/19 03:41:45;;;;;;;5.15;2.55;;;4.80;86.90;;;;;;4989819;28;20224;-76
2021/03/19 03:44:14;;;;;;;4.90;2.78;;;4.70;87.00;;;;;;4979609;28;20077;-76
2021/03/19 03:46:44;;;;;;;6.10;2.70;;;4.60;87.00;;;;;;4980136;28;20066;-76
2021/03/19 03:49:12;;;;;;;4.28;3.20;;;4.40;87.50;;;;;;4979266;28;20053;-76
2021/03/19 03:51:40;;;;;;;5.03;2.63;;;4.30;88.00;;;;;;4979837;28;20103;-76
2021/03/19 03:54:08;;;;;;;5.45;2.75;;;4.50;87.70;;;;;;4990388;28;20042;-76
2021/03/19 03:56:36;;;;;;;4.82;2.60;;;4.60;87.30;;;;;;4982412;28;20061;-76
2021/03/19 03:59:05;;;;;;;4.63;3.05;;;4.60;87.10;;;;;;5014916;23;20512;-76
2021/03/19 04:01:35;;;;;;;4.43;2.78;;;4.60;87.00;;;;;;4988643;23;20067;-78
2021/03/19 04:04:04;;;;;;;4.53;2.60;;;4.70;87.10;;;;;;4951341;28;20295;-77
2021/03/19 04:06:31;;;;;;;5.20;2.67;;;4.70;86.60;;;;;;4942544;28;20042;-78
2021/03/19 04:08:58;;;;;;;4.03;2.42;;;4.80;86.50;;;;;;4942622;28;20750;-78
2021/03/19 04:11:26;;;;;;;4.43;2.30;;;4.80;86.10;;;;;;4944864;28;20036;-78
2021/03/19 04:13:54;;;;;;;4.45;2.00;;;4.80;86.00;;;;;;4950143;28;20043;-78
2021/03/19 04:16:21;;;;;;;5.43;1.98;;;4.70;85.90;;;;;;4939701;28;20043;-78
2021/03/19 04:18:49;;;;;;;4.35;2.08;;;4.70;86.00;;;;;;4940226;28;20044;-78
2021/03/19 04:21:16;;;;;;;3.30;2.17;;;4.70;85.90;;;;;;4932004;28;20061;-77
2021/03/19 04:23:48;;;;;;;4.63;1.90;;;4.50;86.40;;;;;;4939888;28;20085;-78
2021/03/19 04:26:23;;;;;;;3.17;2.00;;;4.30;86.80;;;;;;4942532;28;20045;-78
2021/03/19 04:28:52;;;;;;;3.35;2.10;;;4.20;87.40;;;;;;4937082;28;20138;-78
2021/03/19 04:31:19;;;;;;;2.95;1.95;;;4.30;87.40;;;;;;4942003;28;20062;-77
2021/03/19 04:33:48;;;;;;;3.85;2.20;;;4.70;86.90;;;;;;4941535;28;20107;-78
2021/03/19 04:36:27;;;;;;;5.82;2.38;;;4.70;86.60;;;;;;4942637;28;20047;-78
2021/03/19 04:38:58;;;;;;;3.67;1.90;;;4.70;87.00;;;;;;4953566;28;20153;-78
2021/03/19 04:41:26;;;;;;;3.08;2.25;;;4.50;87.70;;;;;;4945609;28;20048;-78
2021/03/19 04:43:55;;;;;;;4.47;2.30;;;4.40;88.60;;;;;;4941377;28;20070;-78
2021/03/19 04:46:22;;;;;;;3.38;1.90;;;4.40;88.60;;;;;;4939364;28;20031;-78
2021/03/19 04:48:50;;;;;;;2.92;2.22;;;4.50;88.30;;;;;;4950379;28;20070;-78
2021/03/19 04:51:17;;;;;;;3.83;2.30;;;4.60;87.90;;;;;;4940237;28;20094;-78
2021/03/19 04:53:52;;;;;;;3.92;2.10;;;4.60;87.60;;;;;;4950395;28;20406;-78
2021/03/19 04:56:19;;;;;;;3.88;1.95;;;4.60;87.60;;;;;;4948305;28;20038;-77
2021/03/19 04:58:48;;;;;;;3.35;1.88;;;4.70;87.30;;;;;;4937022;28;20047;-77
2021/03/19 05:01:16;;;;;;;3.47;2.05;;;4.70;87.00;;;;;;4939716;28;20054;-77
2021/03/19 05:03:44;;;;;;;3.95;1.85;;;4.70;86.70;;;;;;4956014;28;20043;-77
2021/03/19 05:06:13;;;;;;;3.45;2.05;;;4.60;86.90;;;;;;4935397;28;20106;-77
2021/03/19 05:08:41;;;;;;;3.67;1.85;;;4.60;86.70;;;;;;4940287;28;20043;-78
2021/03/19 05:11:08;;;;;;;5.47;2.10;;;4.60;86.60;;;;;;4945287;28;20039;-78
2021/03/19 05:13:35;;;;;;;3.88;2.33;;;4.60;86.20;;;;;;4942069;28;20611;-78
2021/03/19 05:16:03;;;;;;;3.78;2.10;;;4.50;86.40;;;;;;4935940;28;20047;-78
2021/03/19 05:18:31;;;;;;;4.68;2.42;;;4.70;86.10;;;;;;4941269;28;20050;-78
2021/03/19 05:20:59;;;;;;;4.40;2.15;;;4.70;85.90;;;;;;4944148;28;20046;-77
2021/03/19 05:23:32;;;;;;;6.03;1.80;;;4.40;86.30;;;;;;4940208;28;20031;-78
2021/03/19 05:25:59;;;;;;;4.00;2.25;;;4.20;86.60;;;;;;4942817;28;20051;-78
2021/03/19 05:28:28;;;;;;;3.83;1.75;;;4.10;87.20;;;;;;4935605;28;20107;-78
2021/03/19 05:30:57;;;;;;;3.80;2.40;;;4.10;87.10;;;;;;4937169;28;20036;-78
2021/03/19 05:33:27;;;;;;;3.53;2.20;;;4.20;86.90;;;;;;4941939;28;20537;-75
2021/03/19 05:35:56;;;;;;;4.00;2.17;;;4.10;86.80;;;;;;4938599;28;20048;-78
2021/03/19 05:38:23;;;;;;;5.55;3.13;;;4.30;86.90;;;;;;4938362;28;20074;-78
2021/03/19 05:40:56;;;;;;;5.25;3.25;;;4.20;86.80;;;;;;4934292;28;20126;-78
2021/03/19 05:43:27;;;;;;;4.03;2.92;;;3.90;87.10;;;;;;4949372;28;20455;-78
2021/03/19 05:45:58;;;;;;;3.47;2.40;;;3.90;88.30;;;;;;4933562;28;20126;-78
2021/03/19 05:48:26;;;;;;;3.85;2.53;;;4.10;87.90;;;;;;4956376;28;20051;-78
2021/03/19 05:50:55;;;;;;;4.68;2.42;;;4.20;87.50;;;;;;4936754;28;20047;-78
2021/03/19 05:53:38;;;;;;;7.47;2.70;;;4.10;87.90;;;;;;4947840;28;20048;-78
2021/03/19 05:56:13;;;;;;;9.43;4.78;;;4.00;88.20;;;;;;4941430;28;20295;-77
2021/03/19 05:58:41;;;;;;;20.17;8.48;;;4.00;88.40;;;;;;4945387;28;20055;-78
2021/03/19 06:01:08;;;;;;;13.68;7.10;;;4.10;88.50;;;;;;4932309;28;20056;-78
2021/03/19 06:03:36;;;;;;;9.75;5.80;;;4.20;88.40;;;;;;4931497;28;20054;-78
2021/03/19 06:06:08;;;;;;;7.55;3.65;;;4.30;88.20;;;;;;4934013;28;20035;-78
2021/03/19 06:08:38;;;;;;;8.38;3.53;;;4.40;88.20;;;;;;4921659;29;20061;-78
2021/03/19 06:11:10;;;;;;;6.80;3.38;;;4.50;88.00;;;;;;4947984;28;20049;-78
2021/03/19 06:13:49;;;;;;;4.47;2.75;;;4.50;87.80;;;;;;4953568;28;20584;-78
2021/03/19 06:16:28;;;;;;;6.35;2.90;;;4.30;87.60;;;;;;4940741;28;20032;-78
2021/03/19 06:18:58;;;;;;;4.25;2.67;;;4.40;87.70;;;;;;4937506;28;20178;-78
2021/03/19 06:21:28;;;;;;;5.72;2.75;;;4.50;87.30;;;;;;4940662;28;20506;-78
2021/03/19 06:24:03;;;;;;;5.10;3.35;;;4.40;87.70;;;;;;4934448;28;20039;-78
2021/03/19 06:26:34;;;;;;;5.88;3.67;;;4.50;87.90;;;;;;4951265;28;20036;-78
2021/03/19 06:29:11;;;;;;;5.38;3.75;;;4.60;87.40;;;;;;4939832;28;20075;-78
2021/03/19 06:31:40;;;;;;;4.75;2.95;;;4.80;87.00;;;;;;4939984;28;20095;-77
2021/03/19 06:34:12;;;;;;;5.13;2.83;;;5.00;86.90;;;;;;4936284;28;20494;-78
2021/03/19 06:36:55;;;;;;;4.15;2.38;;;5.20;86.50;;;;;;4935485;28;20071;-78
2021/03/19 06:39:25;;;;;;;4.13;2.38;;;5.30;86.00;;;;;;4950083;28;20040;-78
2021/03/19 06:42:03;;;;;;;3.72;1.83;;;5.40;86.10;;;;;;4935421;28;20124;-78
2021/03/19 06:44:38;;;;;;;5.75;2.03;;;5.50;85.70;;;;;;4943242;28;20708;-75
2021/03/19 06:47:09;;;;;;;3.10;2.00;;;5.70;85.00;;;;;;4939434;28;20454;-76
2021/03/19 06:49:53;;;;;;;4.80;2.00;;;5.70;84.60;;;;;;4925187;28;20063;-76
2021/03/19 06:52:28;;;;;;;2.90;1.95;;;5.90;84.40;;;;;;4926195;28;20070;-75
2021/03/19 06:55:33;;;;;;;5.65;2.28;;;6.00;84.30;;;;;;4936879;28;20050;-76
2021/03/19 06:58:00;;;;;;;4.75;2.28;;;6.00;84.10;;;;;;4930747;28;20050;-78
2021/03/19 07:00:38;;;;;;;3.95;2.60;;;6.00;85.10;;;;;;4934336;28;20048;-78
2021/03/19 07:03:17;;;;;;;6.07;2.78;;;6.00;86.10;;;;;;4938363;28;20054;-78
2021/03/19 07:06:04;;;;;;;6.20;2.92;;;6.00;86.50;;;;;;4940607;28;20110;-78
2021/03/19 07:08:42;;;;;;;4.93;3.03;;;6.10;86.40;;;;;;4937908;28;20535;-78
2021/03/19 07:11:28;;;;;;;6.20;3.13;;;6.10;85.80;;;;;;4948613;28;20626;-78
2021/03/19 07:14:09;;;;;;;6.22;3.40;;;6.10;86.00;;;;;;4938984;28;21634;-78
2021/03/19 07:16:47;;;;;;;6.53;3.72;;;6.20;86.00;;;;;;4932695;28;20036;-78
2021/03/19 07:19:17;;;;;;;7.13;4.28;;;6.10;86.30;;;;;;4924781;28;20543;-78
2021/03/19 07:21:58;;;;;;;6.38;3.92;;;6.20;86.70;;;;;;4912378;28;20051;-78
2021/03/19 07:24:49;;;;;;;5.03;3.10;;;6.20;87.60;;;;;;4929733;28;20134;-78
2021/03/19 07:27:35;;;;;;;7.22;3.05;;;6.20;87.40;;;;;;4943295;28;20481;-78
2021/03/19 07:30:10;;;;;;;;;;;6.30;87.40;;;;;;4948568;28;20048;-78
2021/03/19 07:32:53;;;;;;;3.92;2.40;;;6.50;87.10;;;;;;4933937;28;20270;-78
2021/03/19 07:35:36;;;;;;;3.05;2.25;;;6.60;86.90;;;;;;4947358;28;20062;-78
2021/03/19 07:38:27;;;;;;;3.80;2.33;;;6.60;86.40;;;;;;4937968;28;20509;-78
2021/03/19 07:41:06;;;;;;;5.38;2.20;;;6.70;86.00;;;;;;4939108;28;20659;-78
2021/03/19 07:43:56;;;;;;;5.38;2.33;;;6.70;85.60;;;;;;4940884;28;20052;-78
2021/03/19 07:46:31;;;;;;;4.47;2.60;;;6.70;85.80;;;;;;4935953;28;20051;-78
2021/03/19 07:49:18;;;;;;;3.63;2.50;;;6.80;85.80;;;;;;4938791;28;20039;-78
2021/03/19 07:51:54;;;;;;;4.18;2.78;;;6.80;85.80;;;;;;4954274;28;20055;-78
2021/03/19 07:54:29;;;;;;;4.73;2.80;;;6.90;86.10;;;;;;4949099;28;20051;-78
2021/03/19 07:57:03;;;;;;;5.07;2.95;;;7.00;86.00;;;;;;4934798;28;20876;-78
2021/03/19 07:59:44;;;;;;;3.40;2.60;;;7.10;86.00;;;;;;4945868;28;20036;-78
2021/03/19 08:02:36;;;;;;;5.10;2.85;;;7.20;85.80;;;;;;4941695;28;20042;-78
2021/03/19 08:05:20;;;;;;;4.65;2.80;;;7.30;85.90;;;;;;4942274;28;20806;-78
2021/03/19 08:08:00;;;;;;;4.63;2.72;;;7.50;85.60;;;;;;4954450;28;20134;-78
2021/03/19 08:10:32;;;;;;;4.80;2.88;;;7.50;85.30;;;;;;4943629;28;20055;-78
2021/03/19 08:13:14;;;;;;;4.68;3.08;;;7.70;84.90;;;;;;4941210;28;20047;-78
2021/03/19 08:15:47;;;;;;;3.92;2.35;;;7.70;84.80;;;;;;4929645;28;20049;-78
2021/03/19 08:18:24;;;;;;;4.00;2.63;;;7.80;85.10;;;;;;4956054;28;20785;-78
2021/03/19 08:21:11;;;;;;;4.65;3.10;;;7.90;84.70;;;;;;4944133;28;20410;-78
2021/03/19 08:23:49;;;;;;;4.78;2.65;;;7.90;84.20;;;;;;4951214;28;20510;-78
2021/03/19 08:26:36;;;;;;;4.28;2.78;;;7.90;84.00;;;;;;4956159;28;20043;-78
2021/03/19 08:29:21;;;;;;;3.72;2.65;;;8.00;83.90;;;;;;4953595;28;20077;-78
2021/03/19 08:31:55;;;;;;;4.30;3.05;;;8.00;84.10;;;;;;4955820;28;20183;-79
2021/03/19 08:34:33;;;;;;;4.93;3.33;;;8.10;83.60;;;;;;4938878;28;20039;-78
2021/03/19 08:37:06;;;;;;;6.40;3.08;;;8.20;83.30;;;;;;4938058;28;20101;-78
2021/03/19 08:39:41;;;;;;;5.20;3.30;;;8.20;83.50;;;;;;4941634;28;20134;-78
2021/03/19 08:42:15;;;;;;;6.43;3.15;;;8.40;83.60;;;;;;4947403;28;20098;-89
2021/03/19 08:44:44;;;;;;;4.28;2.53;;;8.50;83.70;;;;;;4953369;28;20059;-78
2021/03/19 08:47:22;;;;;;;5.25;2.35;;;8.60;82.70;;;;;;4940658;28;20036;-78
2021/03/19 08:49:51;;;;;;;3.88;2.65;;;8.70;82.40;;;;;;4952921;28;20058;-78
2021/03/19 08:52:34;;;;;;;4.60;2.45;;;8.80;81.80;;;;;;4955661;28;20047;-79
2021/03/19 08:55:22;;;;;;;5.32;2.38;;;9.00;81.40;;;;;;4946416;28;20050;-78
2021/03/19 08:57:50;;;;;;;;;;;9.10;81.80;;;;;;4947341;28;20047;-82
2021/03/19 09:00:47;;;;;;;3.42;2.00;;;9.30;79.50;;;;;;4946722;28;19934;-78
2021/03/19 09:03:44;;;;;;;3.25;2.20;;;9.40;79.40;;;;;;4950632;28;20126;-85
2021/03/19 09:06:15;;;;;;;3.70;1.92;;;9.50;78.80;;;;;;4945321;28;20064;-79
2021/03/19 09:09:01;;;;;;;3.97;2.13;;;9.50;77.90;;;;;;4937354;28;20460;-78
2021/03/19 09:11:58;;;;;;;3.90;2.35;;;9.60;77.70;;;;;;4934862;28;20577;-79
2021/03/19 09:14:37;;;;;;;4.20;2.28;;;9.90;77.30;;;;;;4949830;28;20147;-76
2021/03/19 09:17:06;;;;;;;6.00;1.88;;;10.10;75.60;;;;;;4953962;28;20082;-79
2021/03/19 09:19:55;;;;;;;4.45;2.42;;;10.20;74.60;;;;;;4941433;28;20070;-79
2021/03/19 09:22:39;;;;;;;4.82;1.92;;;10.30;73.30;;;;;;4941194;28;20082;-76
2021/03/19 09:25:35;;;;;;;7.78;2.10;;;10.30;73.20;;;;;;4943152;28;20168;-78
2021/03/19 09:28:26;;;;;;;3.00;2.10;;;10.40;73.20;;;;;;4922004;28;20217;-77
2021/03/19 09:30:58;;;;;;;2.00;1.60;;;10.40;73.10;;;;;;4944807;28;20046;-79
2021/03/19 09:33:56;;;;;;;2.08;1.50;;;10.40;71.20;;;;;;4937470;28;20039;-78
2021/03/19 09:36:53;;;;;;;2.93;1.90;;;10.60;70.90;;;;;;4939971;28;20483;-78
2021/03/19 09:39:48;;;;;;;3.05;1.58;;;10.70;70.70;;;;;;4952044;28;20047;-79
2021/03/19 09:42:44;;;;;;;2.53;1.58;;;10.70;71.20;;;;;;4942518;28;20134;-80
2021/03/19 09:45:32;;;;;;;4.67;1.57;;;10.80;71.10;;;;;;4940126;28;20067;-79
2021/03/19 09:48:19;;;;;;;3.17;1.80;;;10.90;71.10;;;;;;4955194;28;20604;-79
2021/03/19 09:51:02;;;;;;;3.28;1.70;;;10.80;70.40;;;;;;4938062;28;20662;-79
2021/03/19 09:53:32;;;;;;;2.00;1.58;;;10.90;70.40;;;;;;4954874;28;20850;-77
2021/03/19 09:56:03;;;;;;;2.60;1.67;;;10.90;69.00;;;;;;4942313;28;20271;-81
2021/03/19 09:58:38;;;;;;;2.63;1.60;;;11.10;69.10;;;;;;4938250;28;20111;-78
2021/03/19 10:01:13;;;;;;;2.80;1.65;;;11.00;69.20;;;;;;4937006;28;20047;-83
2021/03/19 10:03:43;;;;;;;2.60;1.90;;;11.10;68.50;;;;;;4938190;28;20142;-79
2021/03/19 10:06:22;;;;;;;3.08;1.70;;;11.10;68.30;;;;;;4936241;28;20095;-78
2021/03/19 10:08:49;;;;;;;2.83;1.60;;;11.10;69.00;;;;;;4942347;28;20063;-79
2021/03/19 10:11:18;;;;;;;2.60;1.83;;;11.30;68.20;;;;;;4938100;28;20410;-79
2021/03/19 10:13:46;;;;;;;4.75;1.85;;;11.40;68.00;;;;;;4940866;28;20522;-78
2021/03/19 10:16:27;;;;;;;2.45;1.92;;;11.50;67.90;;;;;;4940755;28;20079;-78
2021/03/19 10:18:55;;;;;;;2.00;1.70;;;11.70;67.30;;;;;;4945860;28;20062;-78
2021/03/19 10:21:23;;;;;;;3.08;1.70;;;11.80;67.20;;;;;;4941123;28;20044;-78
2021/03/19 10:23:54;;;;;;;3.60;1.80;;;11.80;67.90;;;;;;4950792;28;20517;-78
2021/03/19 10:26:26;;;;;;;3.83;1.67;;;11.80;68.40;;;;;;4943700;28;20047;-78
2021/03/19 10:29:06;;;;;;;1.73;1.45;;;11.90;68.00;;;;;;4933290;28;20056;-78
2021/03/19 10:31:38;;;;;;;2.10;1.40;;;11.80;68.50;;;;;;4935453;28;20054;-78
2021/03/19 10:34:15;;;;;;;2.17;1.40;;;11.80;67.30;;;;;;4926605;28;20293;-78
2021/03/19 10:36:51;;;;;;;3.90;1.52;;;11.80;67.50;;;;;;4955971;28;20532;-77
2021/03/19 10:39:32;;;;;;;2.22;1.42;;;12.00;67.50;;;;;;4942946;28;20321;-79
2021/03/19 10:42:13;;;;;;;2.75;1.85;;;12.30;66.00;;;;;;4941013;28;20142;-76
2021/03/19 10:44:52;;;;;;;4.22;1.70;;;12.20;66.30;;;;;;4939209;28;20047;-87
2021/03/19 10:47:24;;;;;;;3.05;1.65;;;12.10;66.50;;;;;;4944275;28;20046;-88
2021/03/19 10:49:55;;;;;;;2.33;1.33;;;12.10;66.10;;;;;;4941017;29;20697;-88
2021/03/19 10:52:30;;;;;;;3.30;1.98;;;12.10;65.80;;;;;;4948914;28;20509;-88
2021/03/19 10:55:03;;;;;;;2.60;1.70;;;12.20;65.60;;;;;;4959701;28;20235;-87
2021/03/19 10:57:36;;;;;;;3.53;1.55;;;12.40;64.40;;;;;;4941410;28;20059;-79
2021/03/19 11:00:28;;;;;;;3.08;1.63;;;12.70;64.70;;;;;;4938658;28;20102;-77
2021/03/19 11:02:57;;;;;;;3.40;1.92;;;12.90;63.40;;;;;;4945892;28;20071;-87
2021/03/19 11:05:25;;;;;;;2.65;1.45;;;13.00;63.20;;;;;;4949654;28;20387;-77
2021/03/19 11:07:52;;;;;;;2.20;1.58;;;13.10;64.20;;;;;;4939488;28;20090;-77
2021/03/19 11:10:25;;;;;;;1.80;1.35;;;13.10;63.90;;;;;;4936235;28;20048;-77
2021/03/19 11:13:25;;;;;;;3.40;2.25;;;13.40;64.10;;;;;;4939794;28;20657;-78
2021/03/19 11:15:55;;;;;;;2.63;1.70;;;13.40;62.40;;;;;;4940375;28;20083;-77
2021/03/19 11:18:26;;;;;;;2.53;1.60;;;13.50;63.30;;;;;;4935674;28;20046;-77
2021/03/19 11:20:58;;;;;;;2.75;1.90;;;13.50;63.20;;;;;;4950871;28;20052;-80
2021/03/19 11:23:32;;;;;;;2.53;1.85;;;13.40;63.50;;;;;;4953082;28;20044;-77
2021/03/19 11:25:59;;;;;;;2.92;1.77;;;13.40;63.60;;;;;;4948623;28;20036;-77
2021/03/19 11:28:39;;;;;;;2.92;1.70;;;13.30;63.40;;;;;;4945638;28;20066;-78
2021/03/19 11:31:18;;;;;;;3.70;1.52;;;13.30;62.90;;;;;;4955534;28;20490;-77
2021/03/19 11:33:58;;;;;;;2.67;2.00;;;13.40;62.70;;;;;;4948901;28;20051;-78
2021/03/19 11:36:27;;;;;;;2.42;1.60;;;13.40;63.10;;;;;;4942370;28;20051;-77
2021/03/19 11:39:12;;;;;;;2.83;1.40;;;13.10;63.50;;;;;;4946678;28;20036;-78
2021/03/19 11:41:42;;;;;;;2.60;1.65;;;12.70;63.80;;;;;;4939716;28;20042;-77
2021/03/19 11:44:13;;;;;;;2.45;1.48;;;12.50;63.90;;;;;;4945498;28;20111;-75
2021/03/19 11:46:40;;;;;;;2.63;1.40;;;12.70;64.10;;;;;;4943032;28;20125;-76
2021/03/19 11:49:12;;;;;;;1.73;1.42;;;13.00;63.90;;;;;;4932221;28;20058;-76
2021/03/19 11:51:44;;;;;;;1.88;1.40;;;12.90;63.10;;;;;;4951193;28;20098;-86
2021/03/19 11:54:11;;;;;;;4.68;1.67;;;12.90;63.20;;;;;;4923604;28;20039;-75
2021/03/19 11:56:39;;;;;;;2.08;1.48;;;13.20;63.30;;;;;;4941773;28;20922;-76
2021/03/19 11:59:14;;;;;;;1.95;1.42;;;13.50;62.30;;;;;;4948169;28;20544;-76
2021/03/19 12:01:43;;;;;;;1.67;1.40;;;13.50;61.80;;;;;;4938024;28;20361;-76
2021/03/19 12:04:18;;;;;;;2.78;1.88;;;13.80;61.80;;;;;;4940713;28;20054;-76
2021/03/19 12:06:47;;;;;;;1.65;1.27;;;14.10;61.30;;;;;;4952274;28;20058;-76
2021/03/19 12:09:14;;;;;;;4.93;1.90;;;14.30;60.50;;;;;;4953197;28;20461;-76
2021/03/19 12:11:43;;;;;;;2.00;1.40;;;14.40;59.40;;;;;;4951447;28;20047;-76
2021/03/19 12:14:18;;;;;;;4.05;1.33;;;14.70;59.10;;;;;;4957687;28;20124;-76
2021/03/19 12:16:45;;;;;;;2.33;1.30;;;14.80;59.80;;;;;;4940656;28;20047;-75
2021/03/19 12:19:15;;;;;;;1.90;1.40;;;14.50;59.00;;;;;;4952018;28;20057;-76
2021/03/19 12:21:42;;;;;;;1.40;1.10;;;14.10;59.20;;;;;;4941429;28;20427;-76
2021/03/19 12:24:15;;;;;;;2.65;1.25;;;14.00;59.70;;;;;;4938776;28;20046;-76
2021/03/19 12:26:42;;;;;;;1.65;1.20;;;14.30;59.50;;;;;;4940555;28;20031;-77
2021/03/19 12:29:12;;;;;;;1.75;1.10;;;14.60;58.80;;;;;;4951320;28;20061;-77
2021/03/19 12:31:40;;;;;;;1.75;1.10;;;14.90;58.50;;;;;;4943327;28;20043;-77
2021/03/19 12:34:09;;;;;;;1.10;0.82;;;15.20;57.70;;;;;;4940226;28;20035;-77
2021/03/19 12:36:36;;;;;;;1.63;0.98;;;15.30;57.10;;;;;;4936714;28;20067;-77
2021/03/19 12:39:04;;;;;;;2.22;1.20;;;15.50;57.90;;;;;;4940262;28;20035;-76
2021/03/19 12:41:36;;;;;;;2.28;1.15;;;15.30;58.20;;;;;;4939869;28;20387;-76
2021/03/19 12:44:04;;;;;;;3.58;1.73;;;15.20;57.70;;;;;;4935677;28;20046;-77
2021/03/19 12:46:32;;;;;;;3.78;1.40;;;15.20;57.60;;;;;;4940129;28;20111;-76
2021/03/19 12:49:01;;;;;;;2.60;1.20;;;15.30;57.40;;;;;;4937603;28;20486;-78
2021/03/19 12:51:28;;;;;;;6.45;1.05;;;15.50;57.60;;;;;;4922793;29;20040;-77
2021/03/19 12:53:56;;;;;;;2.45;0.90;;;15.50;56.00;;;;;;4942053;28;20114;-79
2021/03/19 12:56:24;;;;;;;2.00;0.90;;;15.20;55.30;;;;;;4942854;28;20074;-76
2021/03/19 12:58:53;;;;;;;1.52;0.98;;;15.20;57.20;;;;;;4938255;28;20047;-77
2021/03/19 13:01:21;;;;;;;4.05;1.27;;;15.10;57.20;;;;;;4943530;28;20580;-77
2021/03/19 13:03:51;;;;;;;1.70;1.10;;;14.70;57.80;;;;;;4950772;28;20637;-77
2021/03/19 13:06:21;;;;;;;1.73;1.20;;;14.90;58.20;;;;;;4943542;28;20409;-77
2021/03/19 13:08:49;;;;;;;2.92;1.48;;;15.10;57.60;;;;;;4936911;28;20316;-76
2021/03/19 13:11:16;;;;;;;2.00;1.02;;;15.20;56.80;;;;;;4938333;28;20043;-77
2021/03/19 13:13:44;;;;;;;2.95;1.30;;;15.40;56.50;;;;;;4937396;28;20042;-77
2021/03/19 13:16:12;;;;;;;8.55;1.50;;;15.50;56.60;;;;;;4942337;28;20039;-77
2021/03/19 13:18:39;;;;;;;3.20;2.45;;;15.60;56.20;;;;;;4941387;28;20094;-77
2021/03/19 13:21:07;;;;;;;2.13;1.40;;;15.80;55.80;;;;;;4940374;28;20043;-79
2021/03/19 13:23:35;;;;;;;2.17;1.08;;;16.00;56.40;;;;;;4938147;28;20097;-76
2021/03/19 13:26:03;;;;;;;1.73;1.20;;;16.00;56.40;;;;;;4949294;28;20056;-77
2021/03/19 13:28:30;;;;;;;2.17;0.98;;;15.90;56.60;;;;;;4946355;28;20043;-79
2021/03/19 13:30:59;;;;;;;1.45;1.00;;;15.80;57.20;;;;;;4950763;28;20421;-78